Birchrunville, PA (19421)

7:44 AM EDT on August 27, 2016 (GMT -0400)
APRSWXNET | | Change Station

Elev 439 ft 40.10 °N, 75.66 °W | Updated 33 minutes ago

Clear
Clear
63 °F
Feels Like 63 °F
N
0
Wind Variable Wind from North
Gusts 0.0 mph

Today
High -- | Low -- °F
--% Chance of Precip.
Yesterday
High -- | Low -- °F
Precip. -- in
Pressure 30.19 in
Visibility 6.0 miles
Clouds Clear
Dew Point 60 °F
Humidity 89%
Rainfall in
Snow Depth Not available.
6:25 AM 7:41 PM
Waning Crescent, 25% visible
METAR KPTW 271054Z AUTO 00000KT 6SM BR CLR 18/17 A3020 RMK AO2 SLP222 T01780172
Pressure 30.19 in
Visibility 6.0 miles
Clouds Clear
Dew Point 60 °F
Humidity 89%
Rainfall in
Snow Depth Not available.
6:25 AM 7:41 PM
Waning Crescent, 25% visible
METAR KPTW 271054Z AUTO 00000KT 6SM BR CLR 18/17 A3020 RMK AO2 SLP222 T01780172

10-Day Weather Forecast

Almanac

Astronomy

Aug. 27, 2016 Rise Set
Actual Time
Civil Twilight
Nautical Twilight
Astronomical Twilight
Moon
Length of Visible Light
Length of Day
Tomorrow will be .
, % of the Moon is Illuminated

Today's Extremes

State Highs State Lows

Community

WunderPhotos

Upload Photos

1,935,325 photos uploaded!

WunderBlog® & News

Nearby

Air Quality

  Air Quality AQ Index Pollutant
Not available.

Snow Depth

Station Depth Elevation

Earthquake Activity

City Distance Mag. Time & Date
Minimum magnitude displayed is 2.5.

Coastal Water Temperatures

Place Temperature

Stations

Nearby Weather Stations

Station Location Temp. Windchill Dew Point Humidity Wind Precip. Elev Updated Type
                   

Watches & Warnings

There are currently no watches in effect.